createdAt,value
2023-01-12T00:01:50.232Z,6.60
2023-01-12T00:04:36.578Z,6.70
2023-01-12T00:07:23.642Z,6.60
2023-01-12T00:10:10.053Z,6.50
2023-01-12T00:12:55.899Z,6.50
2023-01-12T00:16:00.583Z,6.40
2023-01-12T00:18:46.819Z,6.40
2023-01-12T00:21:39.580Z,6.30
2023-01-12T00:24:30.472Z,6.30
2023-01-12T00:27:18.304Z,6.30
2023-01-12T00:30:04.406Z,6.30
2023-01-12T00:32:50.565Z,6.30
2023-01-12T00:35:36.661Z,6.40
2023-01-12T00:38:22.703Z,6.40
2023-01-12T00:41:10.194Z,6.40
2023-01-12T00:44:15.096Z,6.30
2023-01-12T00:47:01.158Z,6.30
2023-01-12T00:49:46.907Z,6.30
2023-01-12T00:52:33.052Z,6.20
2023-01-12T00:55:19.009Z,6.00
2023-01-12T00:58:05.224Z,5.90
2023-01-12T01:00:51.174Z,5.80
2023-01-12T01:03:36.940Z,5.70
2023-01-12T01:06:22.966Z,5.80
2023-01-12T01:09:09.109Z,5.70
2023-01-12T01:11:54.970Z,5.60
2023-01-12T01:14:41.054Z,5.60
2023-01-12T01:17:28.722Z,5.50
2023-01-12T01:20:14.829Z,5.40
2023-01-12T01:23:00.882Z,5.40
2023-01-12T01:25:46.961Z,5.30
2023-01-12T01:28:33.123Z,5.30
2023-01-12T01:31:21.593Z,5.20
2023-01-12T01:34:07.585Z,5.20
2023-01-12T01:36:53.607Z,5.20
2023-01-12T01:39:39.785Z,5.20
2023-01-12T01:42:28.832Z,5.30
2023-01-12T01:45:16.806Z,5.20
2023-01-12T01:48:02.990Z,5.20
2023-01-12T01:50:52.717Z,5.10
2023-01-12T01:53:39.820Z,5.10
2023-01-12T01:56:27.812Z,5.20
2023-01-12T01:59:15.797Z,5.10
2023-01-12T02:02:02.670Z,5.10
2023-01-12T02:04:48.678Z,5.10
2023-01-12T02:07:34.791Z,5.00
2023-01-12T02:10:21.180Z,5.00
2023-01-12T02:13:25.754Z,5.10
2023-01-12T02:16:23.081Z,5.00
2023-01-12T02:19:12.118Z,5.00
2023-01-12T02:22:06.909Z,5.00
2023-01-12T02:25:02.613Z,4.90
2023-01-12T02:28:17.034Z,4.90
2023-01-12T02:31:05.880Z,5.00
2023-01-12T02:34:04.201Z,5.00
2023-01-12T02:37:09.187Z,4.90
2023-01-12T02:39:59.769Z,4.90
2023-01-12T02:42:54.493Z,4.90
2023-01-12T02:45:47.648Z,4.90
2023-01-12T02:48:43.771Z,4.90
2023-01-12T02:51:49.803Z,4.90
2023-01-12T02:54:36.900Z,4.90
2023-01-12T02:57:24.569Z,4.80
2023-01-12T03:00:11.311Z,4.80
2023-01-12T03:02:57.081Z,4.70
2023-01-12T03:05:45.899Z,4.70
2023-01-12T03:08:32.531Z,4.60
2023-01-12T03:11:19.115Z,4.60
2023-01-12T03:14:05.339Z,4.70
2023-01-12T03:16:51.473Z,4.60
2023-01-12T03:19:39.511Z,4.60
2023-01-12T03:22:25.420Z,4.50
2023-01-12T03:25:13.604Z,4.50
2023-01-12T03:28:00.973Z,4.40
2023-01-12T03:30:54.811Z,4.50
2023-01-12T03:33:41.844Z,4.50
2023-01-12T03:36:42.261Z,4.40
2023-01-12T03:39:28.402Z,4.40
2023-01-12T03:42:21.309Z,4.30
2023-01-12T03:45:26.990Z,4.30
2023-01-12T03:48:39.708Z,4.30
2023-01-12T03:51:27.485Z,4.30
2023-01-12T03:54:14.431Z,4.20
2023-01-12T03:57:00.662Z,4.20
2023-01-12T03:59:46.773Z,4.10
2023-01-12T04:02:33.326Z,4.10
2023-01-12T04:05:19.394Z,4.10
2023-01-12T04:08:05.923Z,4.10
2023-01-12T04:10:51.867Z,4.10
2023-01-12T04:13:38.061Z,4.10
2023-01-12T04:16:24.117Z,4.10
2023-01-12T04:19:10.046Z,4.00
2023-01-12T04:22:14.897Z,4.00
2023-01-12T04:25:00.954Z,3.90
2023-01-12T04:27:48.418Z,3.90
2023-01-12T04:30:34.679Z,4.00
2023-01-12T04:33:20.699Z,4.00
2023-01-12T04:36:07.026Z,4.00
2023-01-12T04:38:53.144Z,4.10
2023-01-12T04:41:39.273Z,4.00
2023-01-12T04:44:25.236Z,4.10
2023-01-12T04:47:11.707Z,4.00
2023-01-12T04:49:57.728Z,4.00
2023-01-12T04:52:43.870Z,4.00
2023-01-12T04:55:29.864Z,4.00
2023-01-12T04:58:15.953Z,4.00
2023-01-12T05:01:12.440Z,4.00
2023-01-12T05:04:02.211Z,4.10
2023-01-12T05:06:48.205Z,4.00
2023-01-12T05:09:52.991Z,4.00
2023-01-12T05:12:38.880Z,4.10
2023-01-12T05:15:24.964Z,4.10
2023-01-12T05:18:10.669Z,4.10
2023-01-12T05:20:56.999Z,4.10
2023-01-12T05:23:42.853Z,4.10
2023-01-12T05:26:29.184Z,4.20
2023-01-12T05:29:15.323Z,4.10
2023-01-12T05:32:01.078Z,4.10
2023-01-12T05:34:47.321Z,4.10
2023-01-12T05:37:33.343Z,4.20
2023-01-12T05:40:19.641Z,4.20
2023-01-12T05:43:24.524Z,4.30
2023-01-12T05:46:10.216Z,4.30
2023-01-12T05:48:57.117Z,4.40
2023-01-12T05:51:43.029Z,4.40
2023-01-12T05:54:28.953Z,4.50
2023-01-12T05:57:15.068Z,4.50
2023-01-12T06:00:01.148Z,4.60
2023-01-12T06:02:46.993Z,4.70
2023-01-12T06:05:32.973Z,4.80
2023-01-12T06:08:18.931Z,4.80
2023-01-12T06:11:05.106Z,4.70
2023-01-12T06:13:56.971Z,4.80
2023-01-12T06:16:43.775Z,4.70
2023-01-12T06:19:29.470Z,4.80
2023-01-12T06:22:15.257Z,4.80
2023-01-12T06:25:01.308Z,4.80
2023-01-12T06:27:47.277Z,4.70
2023-01-12T06:30:33.370Z,4.70
2023-01-12T06:33:19.311Z,4.70
2023-01-12T06:36:05.791Z,4.80
2023-01-12T06:38:52.013Z,4.80
2023-01-12T06:41:56.769Z,4.80
2023-01-12T06:44:42.695Z,4.90
2023-01-12T06:47:31.163Z,4.90
2023-01-12T06:50:17.229Z,4.90
2023-01-12T06:53:06.436Z,4.90
2023-01-12T06:55:52.146Z,4.90
2023-01-12T06:58:38.482Z,4.90
2023-01-12T07:01:27.128Z,5.00
2023-01-12T07:04:13.922Z,4.90
2023-01-12T07:07:00.198Z,5.00
2023-01-12T07:09:45.841Z,5.10
2023-01-12T07:12:32.023Z,5.10
2023-01-12T07:15:17.848Z,5.20
2023-01-12T07:18:03.590Z,5.20
2023-01-12T07:20:49.498Z,5.20
2023-01-12T07:23:35.913Z,5.20
2023-01-12T07:26:21.680Z,5.30
2023-01-12T07:29:07.935Z,5.30
2023-01-12T07:31:53.786Z,5.40
2023-01-12T07:34:39.662Z,5.30
2023-01-12T07:37:25.656Z,5.30
2023-01-12T07:40:11.922Z,5.30
2023-01-12T07:42:58.514Z,5.30
2023-01-12T07:45:44.604Z,5.40
2023-01-12T07:48:30.801Z,5.30
2023-01-12T07:51:16.907Z,5.40
2023-01-12T07:54:03.109Z,5.40
2023-01-12T07:56:48.897Z,5.40
2023-01-12T07:59:34.977Z,5.40
2023-01-12T08:02:21.547Z,5.40
2023-01-12T08:05:08.109Z,5.50
2023-01-12T08:07:54.317Z,5.50
2023-01-12T08:10:41.102Z,5.50
2023-01-12T08:13:27.133Z,5.60
2023-01-12T08:16:18.537Z,5.70
2023-01-12T08:19:08.364Z,6.00
2023-01-12T08:21:58.638Z,6.20
2023-01-12T08:24:48.217Z,6.50
2023-01-12T08:27:35.644Z,7.00
2023-01-12T08:30:22.629Z,7.40
2023-01-12T08:33:10.451Z,7.40
2023-01-12T08:35:56.363Z,7.30
2023-01-12T08:38:42.400Z,7.20
2023-01-12T08:41:36.654Z,7.00
2023-01-12T08:44:22.558Z,6.90
2023-01-12T08:47:15.465Z,6.90
2023-01-12T08:50:01.715Z,6.90
2023-01-12T08:52:47.474Z,6.90
2023-01-12T08:55:33.652Z,7.00
2023-01-12T08:58:19.853Z,6.90
2023-01-12T09:01:10.511Z,6.90
2023-01-12T09:03:57.153Z,6.90
2023-01-12T09:06:44.239Z,7.00
2023-01-12T09:09:30.147Z,7.00
2023-01-12T09:12:16.667Z,7.10
2023-01-12T09:15:02.613Z,7.20
2023-01-12T09:17:58.427Z,7.20
2023-01-12T09:20:44.447Z,7.20
2023-01-12T09:23:30.618Z,7.20
2023-01-12T09:26:18.453Z,7.20
2023-01-12T09:29:04.790Z,7.30
2023-01-12T09:31:51.074Z,7.30
2023-01-12T09:34:37.187Z,7.40
2023-01-12T09:37:22.988Z,7.50
2023-01-12T09:40:10.383Z,7.50
2023-01-12T09:43:15.127Z,7.60
2023-01-12T09:46:39.087Z,7.70
2023-01-12T09:49:26.736Z,7.90
2023-01-12T09:52:33.076Z,8.00
2023-01-12T09:55:23.502Z,8.20
2023-01-12T09:58:09.372Z,8.30
2023-01-12T10:00:56.838Z,8.50
2023-01-12T10:03:43.576Z,8.80
2023-01-12T10:06:29.904Z,8.90
2023-01-12T10:09:18.271Z,8.90
2023-01-12T10:12:03.917Z,8.80
2023-01-12T10:14:56.110Z,8.70
2023-01-12T10:17:51.308Z,8.50
2023-01-12T10:20:44.674Z,8.50
2023-01-12T10:23:30.712Z,8.40
2023-01-12T10:26:23.942Z,8.40
2023-01-12T10:29:12.870Z,8.40
2023-01-12T10:31:58.849Z,8.50
2023-01-12T10:34:48.631Z,8.50
2023-01-12T10:37:42.966Z,8.50
2023-01-12T10:40:28.874Z,8.50
2023-01-12T10:43:23.716Z,8.60
2023-01-12T10:46:09.656Z,8.60
2023-01-12T10:49:14.868Z,8.60
2023-01-12T10:52:03.102Z,8.60
2023-01-12T10:54:49.526Z,8.70
2023-01-12T10:57:35.665Z,8.90
2023-01-12T11:00:25.383Z,8.90
2023-01-12T11:03:31.114Z,8.90
2023-01-12T11:06:20.357Z,9.00
2023-01-12T11:09:24.037Z,9.10
2023-01-12T11:12:21.271Z,9.10
2023-01-12T11:15:10.286Z,9.30
2023-01-12T11:18:35.099Z,9.30
2023-01-12T11:21:24.643Z,9.40
2023-01-12T11:24:29.091Z,9.50
2023-01-12T11:27:35.474Z,9.50
2023-01-12T11:30:30.657Z,9.50
2023-01-12T11:33:18.683Z,9.60
2023-01-12T11:36:07.725Z,9.50
2023-01-12T11:38:55.797Z,9.50
2023-01-12T11:42:12.394Z,9.60
2023-01-12T11:45:05.426Z,9.60
2023-01-12T11:47:53.495Z,9.60
2023-01-12T11:50:40.138Z,9.60
2023-01-12T11:53:26.719Z,9.70
2023-01-12T11:56:28.053Z,9.70
2023-01-12T11:59:18.672Z,9.70
2023-01-12T12:02:14.726Z,9.60
2023-01-12T12:05:15.987Z,9.60
2023-01-12T12:08:08.193Z,9.50
2023-01-12T12:11:14.423Z,9.40
2023-01-12T12:14:00.278Z,9.40
2023-01-12T12:16:46.150Z,9.40
2023-01-12T12:19:45.603Z,9.40
2023-01-12T12:22:41.282Z,9.30
2023-01-12T12:25:29.808Z,9.30
2023-01-12T12:28:28.481Z,9.40
2023-01-12T12:31:25.974Z,9.40
2023-01-12T12:34:27.906Z,9.30
2023-01-12T12:37:22.071Z,9.30
2023-01-12T12:40:23.749Z,9.40
2023-01-12T12:43:37.590Z,9.40
2023-01-12T12:46:23.482Z,9.40
2023-01-12T12:49:11.763Z,9.40
2023-01-12T12:51:58.951Z,9.40
2023-01-12T12:54:44.751Z,9.40
2023-01-12T12:57:30.676Z,9.30
2023-01-12T13:00:40.289Z,9.50
2023-01-12T13:03:47.000Z,9.60
2023-01-12T13:06:48.699Z,9.70
2023-01-12T13:09:35.933Z,9.70
2023-01-12T13:12:30.985Z,9.70
2023-01-12T13:15:18.965Z,9.60
2023-01-12T13:18:06.182Z,9.60
2023-01-12T13:20:56.497Z,9.70
2023-01-12T13:23:44.182Z,10.00
2023-01-12T13:26:30.438Z,10.30
2023-01-12T13:29:29.059Z,10.50
2023-01-12T13:32:33.512Z,10.60
2023-01-12T13:35:26.700Z,10.30
2023-01-12T13:38:18.774Z,10.10
2023-01-12T13:41:14.418Z,10.00
2023-01-12T13:44:00.654Z,9.90
2023-01-12T13:46:48.594Z,9.90
2023-01-12T13:49:35.702Z,10.00
2023-01-12T13:52:29.090Z,10.10
2023-01-12T13:55:20.403Z,10.10
2023-01-12T13:58:19.264Z,10.00
2023-01-12T14:01:06.067Z,9.80
2023-01-12T14:04:09.122Z,9.70
2023-01-12T14:07:14.036Z,9.70
2023-01-12T14:10:09.289Z,9.80
2023-01-12T14:13:15.652Z,10.00
2023-01-12T14:16:36.282Z,10.00
2023-01-12T14:19:26.624Z,9.80
2023-01-12T14:22:19.855Z,9.60
2023-01-12T14:25:13.766Z,9.60
2023-01-12T14:27:59.612Z,9.50
2023-01-12T14:30:51.007Z,9.30
2023-01-12T14:33:38.262Z,9.20
2023-01-12T14:36:27.379Z,9.10
2023-01-12T14:39:17.498Z,9.00
2023-01-12T14:42:22.189Z,9.00
2023-01-12T14:45:47.164Z,9.00
2023-01-12T14:48:34.352Z,8.90
2023-01-12T14:51:27.263Z,8.90
2023-01-12T14:54:13.112Z,8.90
2023-01-12T14:57:19.060Z,8.80
2023-01-12T15:00:05.470Z,8.80
2023-01-12T15:02:53.063Z,8.70
2023-01-12T15:05:41.643Z,8.70
2023-01-12T15:08:28.019Z,8.60
2023-01-12T15:11:15.542Z,8.60
2023-01-12T15:14:02.540Z,8.50
2023-01-12T15:17:07.675Z,8.50
2023-01-12T15:20:12.609Z,8.40
2023-01-12T15:23:17.016Z,8.30
2023-01-12T15:26:02.841Z,8.30
2023-01-12T15:28:49.419Z,8.20
2023-01-12T15:31:38.856Z,8.20
2023-01-12T15:34:25.048Z,8.10
2023-01-12T15:37:18.339Z,8.10
2023-01-12T15:40:04.665Z,8.10
2023-01-12T15:42:53.053Z,8.00
2023-01-12T15:45:40.455Z,8.00
2023-01-12T15:48:26.523Z,8.10
2023-01-12T15:51:14.058Z,8.10
2023-01-12T15:54:02.276Z,8.10
2023-01-12T15:57:01.466Z,8.00
2023-01-12T16:00:03.069Z,8.10
2023-01-12T16:02:56.452Z,8.00
2023-01-12T16:05:42.656Z,8.00
2023-01-12T16:08:28.448Z,7.90
2023-01-12T16:11:18.103Z,8.00
2023-01-12T16:14:04.412Z,8.00
2023-01-12T16:16:50.447Z,8.10
2023-01-12T16:19:41.420Z,8.10
2023-01-12T16:22:28.141Z,8.10
2023-01-12T16:25:14.494Z,8.10
2023-01-12T16:28:00.579Z,8.00
2023-01-12T16:30:46.823Z,8.00
2023-01-12T16:33:32.853Z,8.00
2023-01-12T16:36:18.867Z,8.00
2023-01-12T16:39:04.945Z,8.00
2023-01-12T16:41:53.188Z,7.90
2023-01-12T16:44:40.190Z,7.90
2023-01-12T16:47:26.042Z,8.00
2023-01-12T16:50:11.949Z,8.00
2023-01-12T16:52:57.871Z,7.90
2023-01-12T16:55:43.931Z,7.90
2023-01-12T16:58:29.916Z,7.90
2023-01-12T17:01:17.393Z,7.90
2023-01-12T17:04:03.828Z,7.90
2023-01-12T17:06:49.955Z,7.80
2023-01-12T17:09:36.413Z,7.80
2023-01-12T17:12:22.496Z,7.80
2023-01-12T17:15:09.286Z,7.80
2023-01-12T17:17:55.551Z,7.80
2023-01-12T17:20:41.527Z,7.80
2023-01-12T17:23:28.115Z,7.80
2023-01-12T17:26:17.513Z,7.80
2023-01-12T17:29:04.157Z,7.70
2023-01-12T17:31:49.981Z,7.70
2023-01-12T17:34:46.820Z,7.70
2023-01-12T17:37:38.945Z,7.70
2023-01-12T17:40:27.245Z,7.70
2023-01-12T17:43:14.763Z,7.70
2023-01-12T17:46:03.158Z,7.60
2023-01-12T17:48:50.298Z,7.60
2023-01-12T17:51:37.633Z,7.60
2023-01-12T17:54:26.704Z,7.60
2023-01-12T17:57:13.359Z,7.60
2023-01-12T18:00:00.085Z,7.60
2023-01-12T18:02:46.685Z,7.70
2023-01-12T18:05:32.787Z,7.60
2023-01-12T18:08:18.733Z,7.60
2023-01-12T18:11:05.795Z,7.70
2023-01-12T18:13:51.736Z,7.60
2023-01-12T18:16:37.982Z,7.60
2023-01-12T18:19:24.016Z,7.60
2023-01-12T18:22:10.970Z,7.60
2023-01-12T18:24:57.304Z,7.60
2023-01-12T18:27:46.775Z,7.60
2023-01-12T18:30:32.738Z,7.60
2023-01-12T18:33:18.585Z,7.50
2023-01-12T18:36:21.402Z,7.50
2023-01-12T18:39:09.105Z,7.50
2023-01-12T18:42:13.672Z,7.50
2023-01-12T18:45:01.039Z,7.50
2023-01-12T18:48:05.604Z,7.50
2023-01-12T18:51:13.214Z,7.50
2023-01-12T18:53:59.754Z,7.50
2023-01-12T18:56:47.771Z,7.60
2023-01-12T18:59:33.836Z,7.60
2023-01-12T19:02:19.963Z,7.60
2023-01-12T19:05:18.307Z,7.70
2023-01-12T19:08:24.320Z,7.70
2023-01-12T19:11:11.446Z,7.80
2023-01-12T19:14:16.174Z,7.80
2023-01-12T19:17:20.769Z,7.90
2023-01-12T19:20:07.904Z,7.90
2023-01-12T19:23:12.999Z,7.80
2023-01-12T19:26:22.490Z,7.80
2023-01-12T19:29:09.097Z,7.80
2023-01-12T19:31:54.972Z,7.70
2023-01-12T19:34:41.182Z,7.70
2023-01-12T19:37:27.367Z,7.60
2023-01-12T19:40:21.048Z,7.70
2023-01-12T19:43:17.930Z,7.60
2023-01-12T19:46:04.068Z,7.60
2023-01-12T19:48:49.984Z,7.50
2023-01-12T19:51:36.077Z,7.50
2023-01-12T19:54:22.175Z,7.60
2023-01-12T19:57:08.373Z,7.50
2023-01-12T19:59:54.350Z,7.60
2023-01-12T20:02:40.598Z,7.50
2023-01-12T20:05:26.690Z,7.50
2023-01-12T20:08:13.609Z,7.50
2023-01-12T20:11:00.306Z,7.50
2023-01-12T20:13:46.612Z,7.40
2023-01-12T20:16:33.623Z,7.40
2023-01-12T20:19:20.602Z,7.40
2023-01-12T20:22:06.697Z,7.40
2023-01-12T20:24:52.908Z,7.30
2023-01-12T20:27:39.274Z,7.20
2023-01-12T20:30:37.304Z,7.20
2023-01-12T20:33:24.541Z,7.20
2023-01-12T20:36:14.926Z,7.10
2023-01-12T20:39:01.031Z,7.10
2023-01-12T20:41:48.907Z,7.10
2023-01-12T20:44:35.060Z,7.10
2023-01-12T20:47:21.684Z,7.00
2023-01-12T20:50:11.742Z,7.00
2023-01-12T20:52:57.673Z,7.00
2023-01-12T20:55:48.976Z,7.00
2023-01-12T20:58:35.264Z,6.90
2023-01-12T21:01:21.404Z,6.90
2023-01-12T21:04:07.310Z,7.00
2023-01-12T21:06:53.098Z,7.00
2023-01-12T21:09:39.350Z,7.00
2023-01-12T21:12:27.372Z,7.00
2023-01-12T21:15:13.545Z,7.00
2023-01-12T21:17:59.642Z,6.90
2023-01-12T21:20:46.166Z,6.80
2023-01-12T21:23:32.284Z,6.80
2023-01-12T21:26:18.185Z,6.80
2023-01-12T21:29:04.083Z,6.90
2023-01-12T21:31:50.285Z,6.90
2023-01-12T21:34:36.215Z,6.90
2023-01-12T21:37:22.588Z,6.90
2023-01-12T21:40:08.949Z,6.90
2023-01-12T21:43:10.554Z,6.90
2023-01-12T21:45:57.540Z,6.90
2023-01-12T21:48:43.741Z,6.90
2023-01-12T21:51:29.643Z,6.90
2023-01-12T21:54:15.519Z,6.90
2023-01-12T21:57:01.636Z,6.90
2023-01-12T21:59:47.533Z,6.90
2023-01-12T22:02:36.597Z,6.90
2023-01-12T22:05:23.629Z,6.90
2023-01-12T22:08:12.605Z,7.00
2023-01-12T22:11:03.698Z,7.00
2023-01-12T22:13:49.522Z,7.00
2023-01-12T22:16:35.628Z,7.10
2023-01-12T22:19:21.479Z,7.20
2023-01-12T22:22:07.613Z,7.20
2023-01-12T22:24:53.888Z,7.20
2023-01-12T22:27:42.752Z,7.30
2023-01-12T22:30:28.962Z,7.40
2023-01-12T22:33:15.905Z,7.50
2023-01-12T22:36:02.666Z,7.50
2023-01-12T22:38:48.402Z,7.60
2023-01-12T22:41:34.676Z,7.60
2023-01-12T22:44:23.627Z,7.60
2023-01-12T22:47:09.664Z,7.60
2023-01-12T22:49:55.397Z,7.70
2023-01-12T22:52:41.865Z,7.80
2023-01-12T22:55:28.018Z,7.90
2023-01-12T22:58:13.921Z,7.90
2023-01-12T23:01:04.469Z,7.90
2023-01-12T23:03:54.172Z,7.90
2023-01-12T23:06:40.417Z,7.90
2023-01-12T23:09:26.564Z,8.00
2023-01-12T23:12:12.490Z,8.00
2023-01-12T23:14:58.472Z,8.00
2023-01-12T23:17:44.751Z,8.00
2023-01-12T23:20:31.341Z,8.00
2023-01-12T23:23:20.312Z,8.00
2023-01-12T23:26:08.883Z,8.00
2023-01-12T23:28:56.767Z,8.00
2023-01-12T23:31:43.385Z,8.00
2023-01-12T23:34:29.090Z,8.00
2023-01-12T23:37:15.141Z,8.00
2023-01-12T23:40:01.210Z,8.10
2023-01-12T23:42:47.374Z,8.20
2023-01-12T23:45:33.424Z,8.20
2023-01-12T23:48:19.274Z,8.20
2023-01-12T23:51:05.533Z,8.20
2023-01-12T23:53:57.362Z,8.20
2023-01-12T23:56:43.604Z,8.20
2023-01-12T23:59:29.438Z,8.20
